sensor_id;sensor_type;location;lat;lon;timestamp;P1;durP1;ratioP1;P2;durP2;ratioP2
12567;SDS011;6349;50.904;6.136;2023-01-26T00:01:45;27.67;;;16.23;;
12567;SDS011;6349;50.904;6.136;2023-01-26T00:03:47;31.03;;;17.43;;
12567;SDS011;6349;50.904;6.136;2023-01-26T00:05:47;28.43;;;16.43;;
12567;SDS011;6349;50.904;6.136;2023-01-26T00:07:49;27.17;;;15.50;;
12567;SDS011;6349;50.904;6.136;2023-01-26T00:09:51;27.27;;;16.57;;
12567;SDS011;6349;50.904;6.136;2023-01-26T00:11:52;29.43;;;15.87;;
12567;SDS011;6349;50.904;6.136;2023-01-26T00:13:54;29.00;;;15.50;;
12567;SDS011;6349;50.904;6.136;2023-01-26T00:15:58;28.00;;;16.57;;
12567;SDS011;6349;50.904;6.136;2023-01-26T00:17:59;27.47;;;15.67;;
12567;SDS011;6349;50.904;6.136;2023-01-26T00:20:02;27.90;;;15.37;;
12567;SDS011;6349;50.904;6.136;2023-01-26T00:22:04;25.87;;;14.30;;
12567;SDS011;6349;50.904;6.136;2023-01-26T00:24:05;24.83;;;14.97;;
12567;SDS011;6349;50.904;6.136;2023-01-26T00:26:08;26.27;;;15.27;;
12567;SDS011;6349;50.904;6.136;2023-01-26T00:28:11;26.90;;;15.13;;
12567;SDS011;6349;50.904;6.136;2023-01-26T00:30:12;26.67;;;15.57;;
12567;SDS011;6349;50.904;6.136;2023-01-26T00:32:14;23.07;;;14.20;;
12567;SDS011;6349;50.904;6.136;2023-01-26T00:34:16;22.40;;;14.33;;
12567;SDS011;6349;50.904;6.136;2023-01-26T00:36:19;23.03;;;14.03;;
12567;SDS011;6349;50.904;6.136;2023-01-26T00:38:21;23.63;;;14.27;;
12567;SDS011;6349;50.904;6.136;2023-01-26T00:40:23;24.23;;;14.50;;
12567;SDS011;6349;50.904;6.136;2023-01-26T00:42:25;25.33;;;14.17;;
12567;SDS011;6349;50.904;6.136;2023-01-26T00:44:28;26.03;;;14.57;;
12567;SDS011;6349;50.904;6.136;2023-01-26T00:46:30;24.63;;;13.83;;
12567;SDS011;6349;50.904;6.136;2023-01-26T00:48:31;24.70;;;14.00;;
12567;SDS011;6349;50.904;6.136;2023-01-26T00:50:33;24.03;;;13.13;;
12567;SDS011;6349;50.904;6.136;2023-01-26T00:52:34;22.40;;;12.93;;
12567;SDS011;6349;50.904;6.136;2023-01-26T00:54:35;22.70;;;12.87;;
12567;SDS011;6349;50.904;6.136;2023-01-26T00:56:37;20.00;;;12.70;;
12567;SDS011;6349;50.904;6.136;2023-01-26T00:58:38;20.80;;;12.90;;
12567;SDS011;6349;50.904;6.136;2023-01-26T01:00:40;20.70;;;12.83;;
12567;SDS011;6349;50.904;6.136;2023-01-26T01:02:42;20.30;;;12.30;;
12567;SDS011;6349;50.904;6.136;2023-01-26T01:04:44;21.23;;;12.50;;
12567;SDS011;6349;50.904;6.136;2023-01-26T01:06:45;20.47;;;11.87;;
12567;SDS011;6349;50.904;6.136;2023-01-26T01:08:47;19.70;;;11.70;;
12567;SDS011;6349;50.904;6.136;2023-01-26T01:10:48;20.03;;;12.17;;
12567;SDS011;6349;50.904;6.136;2023-01-26T01:12:50;19.87;;;11.80;;
12567;SDS011;6349;50.904;6.136;2023-01-26T01:14:52;19.80;;;11.87;;
12567;SDS011;6349;50.904;6.136;2023-01-26T01:16:53;21.60;;;12.47;;
12567;SDS011;6349;50.904;6.136;2023-01-26T01:18:55;23.03;;;13.20;;
12567;SDS011;6349;50.904;6.136;2023-01-26T01:20:57;20.50;;;11.63;;
12567;SDS011;6349;50.904;6.136;2023-01-26T01:22:58;19.93;;;11.43;;
12567;SDS011;6349;50.904;6.136;2023-01-26T01:25:00;23.27;;;12.13;;
12567;SDS011;6349;50.904;6.136;2023-01-26T01:27:02;21.63;;;11.73;;
12567;SDS011;6349;50.904;6.136;2023-01-26T01:29:03;21.00;;;11.80;;
12567;SDS011;6349;50.904;6.136;2023-01-26T01:31:06;20.10;;;11.50;;
12567;SDS011;6349;50.904;6.136;2023-01-26T01:33:09;19.17;;;11.17;;
12567;SDS011;6349;50.904;6.136;2023-01-26T01:35:10;19.53;;;11.83;;
12567;SDS011;6349;50.904;6.136;2023-01-26T01:37:12;23.07;;;12.60;;
12567;SDS011;6349;50.904;6.136;2023-01-26T01:39:15;24.90;;;12.93;;
12567;SDS011;6349;50.904;6.136;2023-01-26T01:41:17;20.67;;;11.27;;
12567;SDS011;6349;50.904;6.136;2023-01-26T01:43:20;22.23;;;12.63;;
12567;SDS011;6349;50.904;6.136;2023-01-26T01:47:41;21.33;;;11.90;;
12567;SDS011;6349;50.904;6.136;2023-01-26T01:49:45;23.03;;;12.77;;
12567;SDS011;6349;50.904;6.136;2023-01-26T01:51:50;21.47;;;11.80;;
12567;SDS011;6349;50.904;6.136;2023-01-26T01:53:56;20.67;;;11.27;;
12567;SDS011;6349;50.904;6.136;2023-01-26T01:56:06;17.43;;;11.37;;
12567;SDS011;6349;50.904;6.136;2023-01-26T01:58:19;21.30;;;11.97;;
12567;SDS011;6349;50.904;6.136;2023-01-26T02:00:22;22.23;;;12.27;;
12567;SDS011;6349;50.904;6.136;2023-01-26T02:02:24;20.20;;;11.63;;
12567;SDS011;6349;50.904;6.136;2023-01-26T02:04:25;21.40;;;11.83;;
12567;SDS011;6349;50.904;6.136;2023-01-26T02:06:59;21.60;;;12.07;;
12567;SDS011;6349;50.904;6.136;2023-01-26T02:08:54;20.47;;;11.10;;
12567;SDS011;6349;50.904;6.136;2023-01-26T02:10:57;19.00;;;11.20;;
12567;SDS011;6349;50.904;6.136;2023-01-26T02:13:02;20.27;;;11.47;;
12567;SDS011;6349;50.904;6.136;2023-01-26T02:15:05;21.17;;;11.83;;
12567;SDS011;6349;50.904;6.136;2023-01-26T02:17:07;20.67;;;11.73;;
12567;SDS011;6349;50.904;6.136;2023-01-26T02:19:12;19.10;;;10.83;;
12567;SDS011;6349;50.904;6.136;2023-01-26T02:21:23;21.53;;;12.50;;
12567;SDS011;6349;50.904;6.136;2023-01-26T02:23:31;21.33;;;11.60;;
12567;SDS011;6349;50.904;6.136;2023-01-26T02:25:44;18.13;;;10.83;;
12567;SDS011;6349;50.904;6.136;2023-01-26T02:27:51;23.00;;;11.67;;
12567;SDS011;6349;50.904;6.136;2023-01-26T02:29:54;19.93;;;11.40;;
12567;SDS011;6349;50.904;6.136;2023-01-26T02:31:59;20.30;;;11.77;;
12567;SDS011;6349;50.904;6.136;2023-01-26T02:34:00;19.80;;;12.20;;
12567;SDS011;6349;50.904;6.136;2023-01-26T02:36:01;20.00;;;10.50;;
12567;SDS011;6349;50.904;6.136;2023-01-26T02:38:04;21.83;;;11.73;;
12567;SDS011;6349;50.904;6.136;2023-01-26T02:40:09;17.87;;;11.13;;
12567;SDS011;6349;50.904;6.136;2023-01-26T02:42:21;20.00;;;11.30;;
12567;SDS011;6349;50.904;6.136;2023-01-26T02:44:42;17.10;;;10.63;;
12567;SDS011;6349;50.904;6.136;2023-01-26T02:46:44;16.30;;;10.03;;
12567;SDS011;6349;50.904;6.136;2023-01-26T02:48:46;19.30;;;10.90;;
12567;SDS011;6349;50.904;6.136;2023-01-26T02:51:09;16.90;;;9.97;;
12567;SDS011;6349;50.904;6.136;2023-01-26T02:53:11;20.37;;;11.63;;
12567;SDS011;6349;50.904;6.136;2023-01-26T02:55:12;21.90;;;11.97;;
12567;SDS011;6349;50.904;6.136;2023-01-26T02:57:30;18.50;;;11.20;;
12567;SDS011;6349;50.904;6.136;2023-01-26T02:59:34;21.20;;;12.40;;
12567;SDS011;6349;50.904;6.136;2023-01-26T03:01:35;19.73;;;10.63;;
12567;SDS011;6349;50.904;6.136;2023-01-26T03:03:37;19.00;;;10.67;;
12567;SDS011;6349;50.904;6.136;2023-01-26T03:05:42;16.67;;;10.07;;
12567;SDS011;6349;50.904;6.136;2023-01-26T03:07:43;18.63;;;10.37;;
12567;SDS011;6349;50.904;6.136;2023-01-26T03:09:45;18.97;;;11.27;;
12567;SDS011;6349;50.904;6.136;2023-01-26T03:11:47;18.80;;;11.20;;
12567;SDS011;6349;50.904;6.136;2023-01-26T03:13:48;20.47;;;11.53;;
12567;SDS011;6349;50.904;6.136;2023-01-26T03:15:49;19.70;;;11.00;;
12567;SDS011;6349;50.904;6.136;2023-01-26T03:17:59;18.93;;;11.60;;
12567;SDS011;6349;50.904;6.136;2023-01-26T03:20:24;20.40;;;11.57;;
12567;SDS011;6349;50.904;6.136;2023-01-26T03:22:47;19.83;;;11.07;;
12567;SDS011;6349;50.904;6.136;2023-01-26T03:25:09;20.03;;;11.43;;
12567;SDS011;6349;50.904;6.136;2023-01-26T03:27:37;20.27;;;11.43;;
12567;SDS011;6349;50.904;6.136;2023-01-26T03:29:41;19.23;;;11.10;;
12567;SDS011;6349;50.904;6.136;2023-01-26T03:31:45;19.83;;;11.50;;
12567;SDS011;6349;50.904;6.136;2023-01-26T03:33:49;19.30;;;11.17;;
12567;SDS011;6349;50.904;6.136;2023-01-26T03:35:52;21.90;;;11.80;;
12567;SDS011;6349;50.904;6.136;2023-01-26T03:37:53;19.37;;;11.10;;
12567;SDS011;6349;50.904;6.136;2023-01-26T03:39:55;21.37;;;13.13;;
12567;SDS011;6349;50.904;6.136;2023-01-26T03:42:19;23.63;;;12.20;;
12567;SDS011;6349;50.904;6.136;2023-01-26T03:44:43;20.73;;;11.80;;
12567;SDS011;6349;50.904;6.136;2023-01-26T03:47:05;21.43;;;11.67;;
12567;SDS011;6349;50.904;6.136;2023-01-26T03:49:28;19.83;;;11.57;;
12567;SDS011;6349;50.904;6.136;2023-01-26T03:51:50;20.00;;;11.60;;
12567;SDS011;6349;50.904;6.136;2023-01-26T03:54:11;20.60;;;11.43;;
12567;SDS011;6349;50.904;6.136;2023-01-26T03:56:34;22.23;;;12.03;;
12567;SDS011;6349;50.904;6.136;2023-01-26T03:58:35;20.83;;;11.80;;
12567;SDS011;6349;50.904;6.136;2023-01-26T04:00:37;22.30;;;11.63;;
12567;SDS011;6349;50.904;6.136;2023-01-26T04:02:39;21.30;;;11.30;;
12567;SDS011;6349;50.904;6.136;2023-01-26T04:05:05;23.30;;;11.97;;
12567;SDS011;6349;50.904;6.136;2023-01-26T04:07:28;23.20;;;12.60;;
12567;SDS011;6349;50.904;6.136;2023-01-26T04:09:51;22.60;;;12.90;;
12567;SDS011;6349;50.904;6.136;2023-01-26T04:11:53;21.43;;;12.20;;
12567;SDS011;6349;50.904;6.136;2023-01-26T04:13:54;19.23;;;10.87;;
12567;SDS011;6349;50.904;6.136;2023-01-26T04:16:17;21.43;;;12.23;;
12567;SDS011;6349;50.904;6.136;2023-01-26T04:18:39;20.90;;;11.47;;
12567;SDS011;6349;50.904;6.136;2023-01-26T04:21:02;21.77;;;11.87;;
12567;SDS011;6349;50.904;6.136;2023-01-26T04:23:24;22.13;;;12.03;;
12567;SDS011;6349;50.904;6.136;2023-01-26T04:25:24;20.87;;;12.20;;
12567;SDS011;6349;50.904;6.136;2023-01-26T04:27:26;24.23;;;13.07;;
12567;SDS011;6349;50.904;6.136;2023-01-26T04:29:27;24.27;;;13.73;;
12567;SDS011;6349;50.904;6.136;2023-01-26T04:31:29;25.07;;;14.07;;
12567;SDS011;6349;50.904;6.136;2023-01-26T04:33:31;25.93;;;13.50;;
12567;SDS011;6349;50.904;6.136;2023-01-26T04:35:32;23.50;;;13.60;;
12567;SDS011;6349;50.904;6.136;2023-01-26T04:37:33;29.17;;;15.13;;
12567;SDS011;6349;50.904;6.136;2023-01-26T04:39:35;25.70;;;14.70;;
12567;SDS011;6349;50.904;6.136;2023-01-26T04:41:37;27.17;;;14.20;;
12567;SDS011;6349;50.904;6.136;2023-01-26T04:43:39;25.37;;;13.20;;
12567;SDS011;6349;50.904;6.136;2023-01-26T04:45:41;25.53;;;13.67;;
12567;SDS011;6349;50.904;6.136;2023-01-26T04:47:43;25.27;;;14.23;;
12567;SDS011;6349;50.904;6.136;2023-01-26T04:49:45;23.70;;;13.33;;
12567;SDS011;6349;50.904;6.136;2023-01-26T04:51:46;22.80;;;13.27;;
12567;SDS011;6349;50.904;6.136;2023-01-26T04:53:48;22.90;;;13.47;;
12567;SDS011;6349;50.904;6.136;2023-01-26T04:55:50;24.93;;;14.60;;
12567;SDS011;6349;50.904;6.136;2023-01-26T04:57:52;26.47;;;14.43;;
12567;SDS011;6349;50.904;6.136;2023-01-26T04:59:53;26.07;;;14.40;;
12567;SDS011;6349;50.904;6.136;2023-01-26T05:01:55;25.30;;;14.37;;
12567;SDS011;6349;50.904;6.136;2023-01-26T05:03:58;26.90;;;14.90;;
12567;SDS011;6349;50.904;6.136;2023-01-26T05:05:59;26.07;;;13.63;;
12567;SDS011;6349;50.904;6.136;2023-01-26T05:08:01;24.20;;;13.27;;
12567;SDS011;6349;50.904;6.136;2023-01-26T05:10:04;25.57;;;14.20;;
12567;SDS011;6349;50.904;6.136;2023-01-26T05:12:06;24.37;;;13.03;;
12567;SDS011;6349;50.904;6.136;2023-01-26T05:14:29;22.50;;;12.90;;
12567;SDS011;6349;50.904;6.136;2023-01-26T05:16:31;23.40;;;13.20;;
12567;SDS011;6349;50.904;6.136;2023-01-26T05:18:31;23.77;;;13.60;;
12567;SDS011;6349;50.904;6.136;2023-01-26T05:20:33;23.50;;;13.87;;
12567;SDS011;6349;50.904;6.136;2023-01-26T05:22:35;23.10;;;12.43;;
12567;SDS011;6349;50.904;6.136;2023-01-26T05:24:36;21.43;;;12.60;;
12567;SDS011;6349;50.904;6.136;2023-01-26T05:26:38;23.10;;;13.13;;
12567;SDS011;6349;50.904;6.136;2023-01-26T05:28:40;22.10;;;12.70;;
12567;SDS011;6349;50.904;6.136;2023-01-26T05:30:41;24.47;;;12.83;;
12567;SDS011;6349;50.904;6.136;2023-01-26T05:32:43;22.53;;;12.73;;
12567;SDS011;6349;50.904;6.136;2023-01-26T05:34:45;22.73;;;12.33;;
12567;SDS011;6349;50.904;6.136;2023-01-26T05:36:46;24.60;;;13.47;;
12567;SDS011;6349;50.904;6.136;2023-01-26T05:38:49;23.50;;;12.67;;
12567;SDS011;6349;50.904;6.136;2023-01-26T05:40:51;23.77;;;13.47;;
12567;SDS011;6349;50.904;6.136;2023-01-26T05:42:52;26.40;;;14.07;;
12567;SDS011;6349;50.904;6.136;2023-01-26T05:44:56;23.47;;;13.23;;
12567;SDS011;6349;50.904;6.136;2023-01-26T05:46:57;23.77;;;13.03;;
12567;SDS011;6349;50.904;6.136;2023-01-26T05:49:00;23.63;;;13.27;;
12567;SDS011;6349;50.904;6.136;2023-01-26T05:51:02;23.47;;;13.17;;
12567;SDS011;6349;50.904;6.136;2023-01-26T05:53:02;23.00;;;12.53;;
12567;SDS011;6349;50.904;6.136;2023-01-26T05:55:05;25.77;;;14.13;;
12567;SDS011;6349;50.904;6.136;2023-01-26T05:57:07;24.07;;;13.43;;
12567;SDS011;6349;50.904;6.136;2023-01-26T05:59:09;22.20;;;12.83;;
12567;SDS011;6349;50.904;6.136;2023-01-26T06:01:10;22.77;;;13.73;;
12567;SDS011;6349;50.904;6.136;2023-01-26T06:03:12;22.90;;;12.83;;
12567;SDS011;6349;50.904;6.136;2023-01-26T06:05:15;25.60;;;13.17;;
12567;SDS011;6349;50.904;6.136;2023-01-26T06:07:17;23.33;;;14.20;;
12567;SDS011;6349;50.904;6.136;2023-01-26T06:09:19;24.57;;;13.43;;
12567;SDS011;6349;50.904;6.136;2023-01-26T06:11:20;26.67;;;13.90;;
12567;SDS011;6349;50.904;6.136;2023-01-26T06:13:23;23.07;;;13.37;;
12567;SDS011;6349;50.904;6.136;2023-01-26T06:15:24;23.10;;;12.77;;
12567;SDS011;6349;50.904;6.136;2023-01-26T06:17:25;21.73;;;12.93;;
12567;SDS011;6349;50.904;6.136;2023-01-26T06:19:27;22.10;;;12.50;;
12567;SDS011;6349;50.904;6.136;2023-01-26T06:21:30;21.77;;;13.17;;
12567;SDS011;6349;50.904;6.136;2023-01-26T06:23:31;19.90;;;12.10;;
12567;SDS011;6349;50.904;6.136;2023-01-26T06:25:34;19.93;;;11.83;;
12567;SDS011;6349;50.904;6.136;2023-01-26T06:27:36;20.20;;;11.70;;
12567;SDS011;6349;50.904;6.136;2023-01-26T06:29:41;21.67;;;12.47;;
12567;SDS011;6349;50.904;6.136;2023-01-26T06:31:44;19.70;;;11.43;;
12567;SDS011;6349;50.904;6.136;2023-01-26T06:33:46;20.00;;;11.87;;
12567;SDS011;6349;50.904;6.136;2023-01-26T06:35:47;19.20;;;11.50;;
12567;SDS011;6349;50.904;6.136;2023-01-26T06:37:49;19.50;;;12.13;;
12567;SDS011;6349;50.904;6.136;2023-01-26T06:39:51;21.43;;;12.23;;
12567;SDS011;6349;50.904;6.136;2023-01-26T06:41:53;22.13;;;12.87;;
12567;SDS011;6349;50.904;6.136;2023-01-26T06:43:58;21.90;;;12.30;;
12567;SDS011;6349;50.904;6.136;2023-01-26T06:46:01;22.23;;;13.03;;
12567;SDS011;6349;50.904;6.136;2023-01-26T06:48:02;20.80;;;11.97;;
12567;SDS011;6349;50.904;6.136;2023-01-26T06:50:10;20.63;;;12.00;;
12567;SDS011;6349;50.904;6.136;2023-01-26T06:52:45;21.20;;;12.40;;
12567;SDS011;6349;50.904;6.136;2023-01-26T06:54:36;23.40;;;12.23;;
12567;SDS011;6349;50.904;6.136;2023-01-26T06:56:38;22.67;;;13.03;;
12567;SDS011;6349;50.904;6.136;2023-01-26T06:58:42;21.83;;;13.00;;
12567;SDS011;6349;50.904;6.136;2023-01-26T07:00:44;17.67;;;11.57;;
12567;SDS011;6349;50.904;6.136;2023-01-26T07:02:46;22.77;;;12.47;;
12567;SDS011;6349;50.904;6.136;2023-01-26T07:04:49;22.73;;;12.50;;
12567;SDS011;6349;50.904;6.136;2023-01-26T07:06:51;20.40;;;12.13;;
12567;SDS011;6349;50.904;6.136;2023-01-26T07:08:51;21.13;;;12.73;;
12567;SDS011;6349;50.904;6.136;2023-01-26T07:10:52;20.73;;;12.60;;
12567;SDS011;6349;50.904;6.136;2023-01-26T07:12:54;20.93;;;12.50;;
12567;SDS011;6349;50.904;6.136;2023-01-26T07:14:56;21.87;;;12.43;;
12567;SDS011;6349;50.904;6.136;2023-01-26T07:16:57;21.60;;;12.40;;
12567;SDS011;6349;50.904;6.136;2023-01-26T07:19:00;20.80;;;12.47;;
12567;SDS011;6349;50.904;6.136;2023-01-26T07:21:03;20.90;;;12.57;;
12567;SDS011;6349;50.904;6.136;2023-01-26T07:23:09;19.97;;;11.93;;
12567;SDS011;6349;50.904;6.136;2023-01-26T07:25:11;20.83;;;12.67;;
12567;SDS011;6349;50.904;6.136;2023-01-26T07:27:13;21.47;;;12.63;;
12567;SDS011;6349;50.904;6.136;2023-01-26T07:29:14;20.77;;;12.33;;
12567;SDS011;6349;50.904;6.136;2023-01-26T07:31:16;21.73;;;12.13;;
12567;SDS011;6349;50.904;6.136;2023-01-26T07:33:18;18.77;;;11.70;;
12567;SDS011;6349;50.904;6.136;2023-01-26T07:35:19;20.73;;;12.17;;
12567;SDS011;6349;50.904;6.136;2023-01-26T07:37:21;20.50;;;11.73;;
12567;SDS011;6349;50.904;6.136;2023-01-26T07:39:27;21.10;;;12.50;;
12567;SDS011;6349;50.904;6.136;2023-01-26T07:41:28;22.27;;;12.67;;
12567;SDS011;6349;50.904;6.136;2023-01-26T07:43:31;23.03;;;13.13;;
12567;SDS011;6349;50.904;6.136;2023-01-26T07:45:35;19.63;;;11.70;;
12567;SDS011;6349;50.904;6.136;2023-01-26T07:47:36;19.93;;;11.73;;
12567;SDS011;6349;50.904;6.136;2023-01-26T07:49:37;22.27;;;12.87;;
12567;SDS011;6349;50.904;6.136;2023-01-26T07:51:39;20.70;;;12.57;;
12567;SDS011;6349;50.904;6.136;2023-01-26T07:53:43;20.27;;;12.13;;
12567;SDS011;6349;50.904;6.136;2023-01-26T07:55:49;21.87;;;12.57;;
12567;SDS011;6349;50.904;6.136;2023-01-26T07:57:51;21.00;;;11.93;;
12567;SDS011;6349;50.904;6.136;2023-01-26T07:59:53;18.33;;;11.77;;
12567;SDS011;6349;50.904;6.136;2023-01-26T08:01:57;19.87;;;12.50;;
12567;SDS011;6349;50.904;6.136;2023-01-26T08:03:57;19.67;;;11.43;;
12567;SDS011;6349;50.904;6.136;2023-01-26T08:05:59;22.73;;;12.57;;
12567;SDS011;6349;50.904;6.136;2023-01-26T08:08:03;20.23;;;12.13;;
12567;SDS011;6349;50.904;6.136;2023-01-26T08:10:05;21.83;;;12.33;;
12567;SDS011;6349;50.904;6.136;2023-01-26T08:12:06;20.83;;;12.17;;
12567;SDS011;6349;50.904;6.136;2023-01-26T08:14:08;21.87;;;12.17;;
12567;SDS011;6349;50.904;6.136;2023-01-26T08:16:10;21.13;;;12.50;;
12567;SDS011;6349;50.904;6.136;2023-01-26T08:18:13;23.30;;;12.83;;
12567;SDS011;6349;50.904;6.136;2023-01-26T08:20:40;22.77;;;12.93;;
12567;SDS011;6349;50.904;6.136;2023-01-26T08:22:42;20.80;;;12.57;;
12567;SDS011;6349;50.904;6.136;2023-01-26T08:24:43;24.13;;;14.43;;
12567;SDS011;6349;50.904;6.136;2023-01-26T08:26:45;22.90;;;12.57;;
12567;SDS011;6349;50.904;6.136;2023-01-26T08:28:46;23.10;;;13.73;;
12567;SDS011;6349;50.904;6.136;2023-01-26T08:30:47;23.37;;;13.77;;
12567;SDS011;6349;50.904;6.136;2023-01-26T08:32:49;24.93;;;14.17;;
12567;SDS011;6349;50.904;6.136;2023-01-26T08:34:51;23.10;;;13.53;;
12567;SDS011;6349;50.904;6.136;2023-01-26T08:36:52;22.40;;;12.63;;
12567;SDS011;6349;50.904;6.136;2023-01-26T08:38:54;26.53;;;13.60;;
12567;SDS011;6349;50.904;6.136;2023-01-26T08:40:57;27.60;;;15.23;;
12567;SDS011;6349;50.904;6.136;2023-01-26T08:42:59;27.00;;;13.70;;
12567;SDS011;6349;50.904;6.136;2023-01-26T08:45:02;24.50;;;13.87;;
12567;SDS011;6349;50.904;6.136;2023-01-26T08:47:04;23.83;;;13.73;;
12567;SDS011;6349;50.904;6.136;2023-01-26T08:49:04;24.73;;;13.93;;
12567;SDS011;6349;50.904;6.136;2023-01-26T08:51:05;25.33;;;14.50;;
12567;SDS011;6349;50.904;6.136;2023-01-26T08:53:08;23.87;;;13.83;;
12567;SDS011;6349;50.904;6.136;2023-01-26T08:55:10;25.27;;;14.60;;
12567;SDS011;6349;50.904;6.136;2023-01-26T08:57:11;23.53;;;13.77;;
12567;SDS011;6349;50.904;6.136;2023-01-26T08:59:13;27.07;;;14.43;;
12567;SDS011;6349;50.904;6.136;2023-01-26T09:01:15;24.77;;;13.77;;
12567;SDS011;6349;50.904;6.136;2023-01-26T09:03:16;24.23;;;13.33;;
12567;SDS011;6349;50.904;6.136;2023-01-26T09:05:19;23.33;;;13.87;;
12567;SDS011;6349;50.904;6.136;2023-01-26T09:07:21;23.67;;;13.57;;
12567;SDS011;6349;50.904;6.136;2023-01-26T09:09:22;22.57;;;12.53;;
12567;SDS011;6349;50.904;6.136;2023-01-26T09:11:24;23.93;;;13.30;;
12567;SDS011;6349;50.904;6.136;2023-01-26T09:13:26;20.97;;;13.13;;
12567;SDS011;6349;50.904;6.136;2023-01-26T09:15:27;24.30;;;13.43;;
12567;SDS011;6349;50.904;6.136;2023-01-26T09:17:29;23.40;;;12.80;;
12567;SDS011;6349;50.904;6.136;2023-01-26T09:19:31;23.40;;;13.43;;
12567;SDS011;6349;50.904;6.136;2023-01-26T09:21:32;20.83;;;12.43;;
12567;SDS011;6349;50.904;6.136;2023-01-26T09:23:36;19.90;;;12.40;;
12567;SDS011;6349;50.904;6.136;2023-01-26T09:25:39;22.33;;;12.77;;
12567;SDS011;6349;50.904;6.136;2023-01-26T09:27:39;22.43;;;13.03;;
12567;SDS011;6349;50.904;6.136;2023-01-26T09:29:41;23.80;;;14.20;;
12567;SDS011;6349;50.904;6.136;2023-01-26T09:31:42;25.70;;;14.63;;
12567;SDS011;6349;50.904;6.136;2023-01-26T09:33:44;26.07;;;14.10;;
12567;SDS011;6349;50.904;6.136;2023-01-26T09:35:48;27.37;;;14.03;;
12567;SDS011;6349;50.904;6.136;2023-01-26T09:37:49;25.53;;;14.27;;
12567;SDS011;6349;50.904;6.136;2023-01-26T09:39:50;26.53;;;14.90;;
12567;SDS011;6349;50.904;6.136;2023-01-26T09:44:33;27.10;;;14.37;;
12567;SDS011;6349;50.904;6.136;2023-01-26T09:49:14;27.67;;;15.50;;
12567;SDS011;6349;50.904;6.136;2023-01-26T09:51:23;25.07;;;14.33;;
12567;SDS011;6349;50.904;6.136;2023-01-26T09:53:56;25.27;;;14.77;;
12567;SDS011;6349;50.904;6.136;2023-01-26T09:56:01;25.57;;;14.40;;
12567;SDS011;6349;50.904;6.136;2023-01-26T09:58:04;27.00;;;15.07;;
12567;SDS011;6349;50.904;6.136;2023-01-26T10:00:09;25.70;;;15.37;;
12567;SDS011;6349;50.904;6.136;2023-01-26T10:05:08;25.80;;;14.60;;
12567;SDS011;6349;50.904;6.136;2023-01-26T10:07:19;25.63;;;14.80;;
12567;SDS011;6349;50.904;6.136;2023-01-26T10:09:21;26.17;;;15.07;;
12567;SDS011;6349;50.904;6.136;2023-01-26T10:11:28;23.90;;;14.23;;
12567;SDS011;6349;50.904;6.136;2023-01-26T10:13:38;28.43;;;14.77;;
12567;SDS011;6349;50.904;6.136;2023-01-26T10:15:46;24.23;;;13.63;;
12567;SDS011;6349;50.904;6.136;2023-01-26T10:17:52;24.70;;;13.90;;
12567;SDS011;6349;50.904;6.136;2023-01-26T10:19:59;25.50;;;14.03;;
12567;SDS011;6349;50.904;6.136;2023-01-26T10:22:10;23.57;;;13.43;;
12567;SDS011;6349;50.904;6.136;2023-01-26T10:24:18;24.13;;;13.87;;
12567;SDS011;6349;50.904;6.136;2023-01-26T10:26:22;27.73;;;14.70;;
12567;SDS011;6349;50.904;6.136;2023-01-26T10:28:28;26.83;;;14.30;;
12567;SDS011;6349;50.904;6.136;2023-01-26T10:30:35;27.30;;;14.23;;
12567;SDS011;6349;50.904;6.136;2023-01-26T10:32:39;24.77;;;13.80;;
12567;SDS011;6349;50.904;6.136;2023-01-26T10:34:44;24.90;;;14.40;;
12567;SDS011;6349;50.904;6.136;2023-01-26T10:36:48;23.23;;;12.70;;
12567;SDS011;6349;50.904;6.136;2023-01-26T10:38:50;24.53;;;13.83;;
12567;SDS011;6349;50.904;6.136;2023-01-26T10:40:52;24.73;;;14.57;;
12567;SDS011;6349;50.904;6.136;2023-01-26T10:42:55;26.00;;;14.40;;
12567;SDS011;6349;50.904;6.136;2023-01-26T10:44:59;23.20;;;13.87;;
12567;SDS011;6349;50.904;6.136;2023-01-26T10:47:05;24.33;;;13.23;;
12567;SDS011;6349;50.904;6.136;2023-01-26T10:49:15;24.20;;;12.70;;
12567;SDS011;6349;50.904;6.136;2023-01-26T10:51:21;24.27;;;13.40;;
12567;SDS011;6349;50.904;6.136;2023-01-26T10:53:25;23.60;;;12.67;;
12567;SDS011;6349;50.904;6.136;2023-01-26T10:55:30;24.07;;;12.80;;
12567;SDS011;6349;50.904;6.136;2023-01-26T10:57:36;23.63;;;13.13;;
12567;SDS011;6349;50.904;6.136;2023-01-26T10:59:41;22.37;;;12.87;;
12567;SDS011;6349;50.904;6.136;2023-01-26T11:02:00;22.57;;;11.70;;
12567;SDS011;6349;50.904;6.136;2023-01-26T11:04:19;22.70;;;12.53;;
12567;SDS011;6349;50.904;6.136;2023-01-26T11:06:21;19.77;;;12.30;;
12567;SDS011;6349;50.904;6.136;2023-01-26T11:08:34;21.13;;;12.33;;
12567;SDS011;6349;50.904;6.136;2023-01-26T11:10:38;21.00;;;12.50;;
12567;SDS011;6349;50.904;6.136;2023-01-26T11:13:02;21.23;;;12.57;;
12567;SDS011;6349;50.904;6.136;2023-01-26T11:15:24;20.93;;;11.73;;
12567;SDS011;6349;50.904;6.136;2023-01-26T11:17:31;20.67;;;12.00;;
12567;SDS011;6349;50.904;6.136;2023-01-26T11:21:56;22.07;;;12.13;;
12567;SDS011;6349;50.904;6.136;2023-01-26T11:26:32;21.70;;;11.40;;
12567;SDS011;6349;50.904;6.136;2023-01-26T11:31:58;19.40;;;10.60;;
12567;SDS011;6349;50.904;6.136;2023-01-26T11:34:30;19.03;;;10.47;;
12567;SDS011;6349;50.904;6.136;2023-01-26T11:36:32;18.83;;;11.07;;
12567;SDS011;6349;50.904;6.136;2023-01-26T11:38:59;18.40;;;10.40;;
12567;SDS011;6349;50.904;6.136;2023-01-26T11:41:32;17.10;;;9.50;;
12567;SDS011;6349;50.904;6.136;2023-01-26T11:46:54;16.43;;;9.73;;
12567;SDS011;6349;50.904;6.136;2023-01-26T11:51:50;15.50;;;9.03;;
12567;SDS011;6349;50.904;6.136;2023-01-26T11:54:36;16.40;;;9.97;;
12567;SDS011;6349;50.904;6.136;2023-01-26T11:59:15;15.17;;;8.50;;
12567;SDS011;6349;50.904;6.136;2023-01-26T12:01:20;12.73;;;8.13;;
12567;SDS011;6349;50.904;6.136;2023-01-26T12:03:32;12.00;;;7.47;;
12567;SDS011;6349;50.904;6.136;2023-01-26T12:05:43;12.80;;;7.63;;
12567;SDS011;6349;50.904;6.136;2023-01-26T12:07:59;11.47;;;7.53;;
12567;SDS011;6349;50.904;6.136;2023-01-26T12:10:32;10.97;;;7.30;;
12567;SDS011;6349;50.904;6.136;2023-01-26T12:12:42;10.67;;;7.07;;
12567;SDS011;6349;50.904;6.136;2023-01-26T12:14:50;9.97;;;6.67;;
12567;SDS011;6349;50.904;6.136;2023-01-26T12:17:00;10.47;;;6.60;;
12567;SDS011;6349;50.904;6.136;2023-01-26T12:19:24;10.20;;;7.03;;
12567;SDS011;6349;50.904;6.136;2023-01-26T12:21:53;10.00;;;6.03;;
12567;SDS011;6349;50.904;6.136;2023-01-26T12:24:03;9.80;;;6.50;;
12567;SDS011;6349;50.904;6.136;2023-01-26T12:26:06;10.03;;;6.17;;
12567;SDS011;6349;50.904;6.136;2023-01-26T12:28:46;10.20;;;6.90;;
12567;SDS011;6349;50.904;6.136;2023-01-26T12:33:02;9.70;;;6.50;;
12567;SDS011;6349;50.904;6.136;2023-01-26T12:35:08;9.67;;;6.33;;
12567;SDS011;6349;50.904;6.136;2023-01-26T12:39:44;9.70;;;6.63;;
12567;SDS011;6349;50.904;6.136;2023-01-26T12:41:58;8.90;;;5.97;;
12567;SDS011;6349;50.904;6.136;2023-01-26T12:44:41;8.90;;;5.93;;
12567;SDS011;6349;50.904;6.136;2023-01-26T12:46:46;9.10;;;6.53;;
12567;SDS011;6349;50.904;6.136;2023-01-26T12:48:56;10.93;;;6.60;;
12567;SDS011;6349;50.904;6.136;2023-01-26T12:51:05;8.37;;;6.30;;
12567;SDS011;6349;50.904;6.136;2023-01-26T12:55:39;9.43;;;6.23;;
12567;SDS011;6349;50.904;6.136;2023-01-26T12:57:51;8.50;;;5.77;;
12567;SDS011;6349;50.904;6.136;2023-01-26T13:00:03;7.57;;;5.87;;
12567;SDS011;6349;50.904;6.136;2023-01-26T13:02:31;8.97;;;5.50;;